Time;durP1;ratioP1;P1;durP2;ratioP2;P2;SDS_P1;SDS_P2;PMS_P1;PMS_P2;Temp;Humidity;BMP_temperature;BMP_pressure;BME280_temperature;BME280_humidity;BME280_pressure;Samples;Min_cycle;Max_cycle;Signal;HPM_P1;HPM_P2
2021/06/18 00:01:57;;;;;;;5.88;4.38;;;;;;;;;;4959823;29;20023;-79
2021/06/18 00:04:23;;;;;;;7.93;4.90;;;;;;;;;;4959533;28;20107;-79
2021/06/18 00:06:49;;;;;;;7.88;4.95;;;;;;;;;;4959885;29;20027;-79
2021/06/18 00:09:15;;;;;;;9.98;5.32;;;;;;;;;;4959491;29;20027;-79
2021/06/18 00:11:41;;;;;;;7.65;4.70;;;;;;;;;;4959726;29;20035;-79
2021/06/18 00:14:08;;;;;;;8.70;5.10;;;;;;;;;;4959457;29;20026;-79
2021/06/18 00:16:34;;;;;;;5.60;4.50;;;;;;;;;;4959486;29;20058;-79
2021/06/18 00:19:01;;;;;;;6.97;4.45;;;;;;;;;;4959447;29;20027;-79
2021/06/18 00:21:27;;;;;;;6.70;4.75;;;;;;;;;;4959316;29;20070;-79
2021/06/18 00:23:53;;;;;;;8.20;4.93;;;;;;;;;;4959559;29;20035;-79
2021/06/18 00:26:19;;;;;;;7.13;4.45;;;;;;;;;;4959334;29;20027;-79
2021/06/18 00:28:45;;;;;;;5.45;4.53;;;;;;;;;;4959103;29;20062;-79
2021/06/18 00:31:12;;;;;;;10.25;5.90;;;;;;;;;;4959409;29;20034;-79
2021/06/18 00:33:38;;;;;;;6.72;5.07;;;;;;;;;;4959369;28;20038;-79
2021/06/18 00:36:04;;;;;;;7.40;4.90;;;;;;;;;;4959257;28;20031;-79
2021/06/18 00:38:30;;;;;;;8.43;5.28;;;;;;;;;;4958621;29;20098;-79
2021/06/18 00:40:57;;;;;;;7.15;4.82;;;;;;;;;;4959165;29;20032;-80
2021/06/18 00:43:23;;;;;;;10.13;5.63;;;;;;;;;;4959052;29;20019;-79
2021/06/18 00:45:49;;;;;;;11.68;5.82;;;;;;;;;;4959191;29;20030;-79
2021/06/18 00:48:16;;;;;;;9.70;6.22;;;;;;;;;;4958956;29;20027;-79
2021/06/18 00:50:42;;;;;;;8.68;5.55;;;;;;;;;;4959082;29;20043;-80
2021/06/18 00:53:09;;;;;;;7.53;4.82;;;;;;;;;;4958937;29;20023;-79
2021/06/18 00:55:35;;;;;;;7.60;5.50;;;;;;;;;;4959076;29;20082;-79
2021/06/18 00:58:01;;;;;;;9.00;5.65;;;;;;;;;;4958840;29;20027;-79
2021/06/18 01:00:27;;;;;;;6.18;4.93;;;;;;;;;;4941882;29;20476;-79
2021/06/18 01:02:53;;;;;;;7.15;5.00;;;;;;;;;;4959019;28;20058;-79
2021/06/18 01:05:20;;;;;;;8.23;5.00;;;;;;;;;;4958644;29;20055;-79
2021/06/18 01:08:02;;;;;;;8.02;4.50;;;;;;;;;;4958977;29;20067;-79
2021/06/18 01:10:33;;;;;;;6.22;4.75;;;;;;;;;;4958523;29;20027;-79
2021/06/18 01:13:12;;;;;;;7.20;4.85;;;;;;;;;;4958793;29;20027;-79
2021/06/18 01:15:43;;;;;;;8.43;5.15;;;;;;;;;;4958867;29;20034;-79
2021/06/18 01:18:12;;;;;;;13.77;4.93;;;;;;;;;;4958711;29;20404;-79
2021/06/18 01:20:57;;;;;;;10.23;5.15;;;;;;;;;;4941687;29;20050;-79
2021/06/18 01:23:29;;;;;;;7.07;5.15;;;;;;;;;;4958644;29;20027;-79
2021/06/18 01:26:18;;;;;;;6.88;4.90;;;;;;;;;;4958596;29;20314;-79
2021/06/18 01:28:54;;;;;;;9.88;5.03;;;;;;;;;;4958023;29;20035;-79
2021/06/18 01:31:25;;;;;;;6.25;5.03;;;;;;;;;;4958799;29;20026;-79
2021/06/18 01:33:55;;;;;;;7.03;5.40;;;;;;;;;;4958696;28;20034;-79
2021/06/18 01:36:23;;;;;;;5.85;5.22;;;;;;;;;;4958684;29;20031;-79
2021/06/18 01:38:51;;;;;;;9.85;5.43;;;;;;;;;;4941650;29;20032;-79
2021/06/18 01:41:19;;;;;;;10.95;6.65;;;;;;;;;;4958651;29;20149;-79
2021/06/18 01:43:46;;;;;;;11.68;7.35;;;;;;;;;;4958732;29;20027;-79
2021/06/18 01:46:14;;;;;;;11.80;6.50;;;;;;;;;;4958417;29;20027;-79
2021/06/18 01:48:41;;;;;;;11.18;6.22;;;;;;;;;;4959823;28;20031;-79
2021/06/18 01:51:07;;;;;;;8.52;5.93;;;;;;;;;;4962351;29;20023;-79
2021/06/18 01:53:34;;;;;;;11.52;6.30;;;;;;;;;;4961977;29;20015;-80
2021/06/18 01:56:01;;;;;;;10.15;6.13;;;;;;;;;;4961864;29;20031;-79
2021/06/18 01:58:29;;;;;;;9.05;5.88;;;;;;;;;;4961987;29;20071;-79
2021/06/18 02:00:56;;;;;;;9.25;6.03;;;;;;;;;;4962083;29;20030;-79
2021/06/18 02:03:30;;;;;;;10.73;6.03;;;;;;;;;;4961787;28;20053;-79
2021/06/18 02:05:58;;;;;;;10.10;6.10;;;;;;;;;;4961773;29;20460;-79
2021/06/18 02:08:25;;;;;;;15.77;8.20;;;;;;;;;;4944583;29;20042;-79
2021/06/18 02:10:52;;;;;;;10.85;7.35;;;;;;;;;;4962002;29;20027;-79
2021/06/18 02:13:19;;;;;;;11.18;6.13;;;;;;;;;;4944695;29;20434;-79
2021/06/18 02:15:46;;;;;;;9.13;5.82;;;;;;;;;;4961824;29;20030;-79
2021/06/18 02:18:14;;;;;;;8.27;5.78;;;;;;;;;;4961690;29;20023;-79
2021/06/18 02:20:40;;;;;;;7.35;5.45;;;;;;;;;;4961601;29;20449;-79
2021/06/18 02:23:08;;;;;;;9.98;5.60;;;;;;;;;;4961672;29;20031;-79
2021/06/18 02:25:35;;;;;;;11.10;5.57;;;;;;;;;;4961719;29;20034;-79
2021/06/18 02:28:01;;;;;;;8.20;5.43;;;;;;;;;;4961450;29;20437;-79
2021/06/18 02:30:27;;;;;;;8.20;5.63;;;;;;;;;;4961040;29;20438;-79
2021/06/18 02:32:54;;;;;;;9.13;5.40;;;;;;;;;;4961377;28;20032;-79
2021/06/18 02:35:20;;;;;;;9.88;5.07;;;;;;;;;;4961363;29;20128;-79
2021/06/18 02:37:46;;;;;;;9.73;4.97;;;;;;;;;;4961307;29;20028;-79
2021/06/18 02:40:12;;;;;;;8.60;5.40;;;;;;;;;;4961488;29;20035;-79
2021/06/18 02:42:38;;;;;;;10.02;5.40;;;;;;;;;;4961255;29;20116;-79
2021/06/18 02:45:05;;;;;;;7.80;4.95;;;;;;;;;;4961313;29;20087;-79
2021/06/18 02:47:34;;;;;;;6.78;5.05;;;;;;;;;;4961223;29;20106;-79
2021/06/18 02:50:18;;;;;;;8.95;5.03;;;;;;;;;;4943786;29;20042;-79
2021/06/18 02:52:47;;;;;;;10.90;5.28;;;;;;;;;;4961244;29;20106;-79
2021/06/18 02:55:16;;;;;;;13.05;5.57;;;;;;;;;;4960947;29;20062;-79
2021/06/18 02:57:47;;;;;;;9.68;5.25;;;;;;;;;;4961002;29;20027;-79
2021/06/18 03:00:13;;;;;;;14.20;5.28;;;;;;;;;;4960283;28;20027;-79
2021/06/18 03:02:44;;;;;;;11.73;5.60;;;;;;;;;;4943783;29;20453;-79
2021/06/18 03:05:11;;;;;;;11.35;5.30;;;;;;;;;;4960625;28;20063;-79
2021/06/18 03:07:38;;;;;;;9.70;5.10;;;;;;;;;;4960593;29;20031;-78
2021/06/18 03:10:06;;;;;;;12.48;5.32;;;;;;;;;;4960660;29;20035;-79
2021/06/18 03:12:33;;;;;;;11.30;5.03;;;;;;;;;;4960862;29;20023;-79
2021/06/18 03:15:05;;;;;;;7.00;4.97;;;;;;;;;;4960679;29;20097;-79
2021/06/18 03:17:32;;;;;;;13.93;5.60;;;;;;;;;;4943518;29;20055;-79
2021/06/18 03:19:59;;;;;;;13.45;7.07;;;;;;;;;;4960653;29;20027;-79
2021/06/18 03:22:26;;;;;;;11.15;6.85;;;;;;;;;;4960663;29;20027;-79
2021/06/18 03:24:55;;;;;;;13.75;6.07;;;;;;;;;;4943398;29;20035;-78
2021/06/18 03:27:22;;;;;;;9.15;5.03;;;;;;;;;;4960402;29;20023;-78
2021/06/18 03:29:49;;;;;;;21.00;11.07;;;;;;;;;;4960099;29;20063;-79
2021/06/18 03:32:15;;;;;;;8.95;5.82;;;;;;;;;;4960192;29;20030;-79
2021/06/18 03:34:42;;;;;;;12.77;5.97;;;;;;;;;;4943394;29;20094;-79
2021/06/18 03:37:09;;;;;;;8.95;6.38;;;;;;;;;;4960287;29;20305;-79
2021/06/18 03:39:35;;;;;;;9.80;6.80;;;;;;;;;;4960150;29;20459;-79
2021/06/18 03:42:02;;;;;;;9.77;6.25;;;;;;;;;;4960383;29;20031;-79
2021/06/18 03:44:28;;;;;;;13.23;6.82;;;;;;;;;;4960024;29;20023;-79
2021/06/18 03:46:55;;;;;;;10.18;5.63;;;;;;;;;;4960029;29;20035;-79
2021/06/18 03:49:24;;;;;;;17.90;8.13;;;;;;;;;;4959954;29;20464;-79
2021/06/18 03:51:50;;;;;;;8.82;6.80;;;;;;;;;;4960073;29;20077;-79
2021/06/18 03:54:17;;;;;;;15.00;7.68;;;;;;;;;;4959866;29;20461;-79
2021/06/18 03:56:48;;;;;;;12.57;8.82;;;;;;;;;;4959855;29;20023;-79
2021/06/18 03:59:15;;;;;;;12.47;8.27;;;;;;;;;;4959753;29;20317;-79
2021/06/18 04:01:42;;;;;;;15.25;8.30;;;;;;;;;;4959695;29;20027;-79
2021/06/18 04:04:08;;;;;;;9.68;7.85;;;;;;;;;;4948697;29;20055;-79
2021/06/18 04:06:34;;;;;;;10.73;8.50;;;;;;;;;;4959781;28;20453;-79
2021/06/18 04:09:01;;;;;;;14.52;9.00;;;;;;;;;;4959749;28;20429;-79
2021/06/18 04:11:27;;;;;;;15.00;9.10;;;;;;;;;;4958693;28;20078;-79
2021/06/18 04:13:53;;;;;;;14.77;9.80;;;;;;;;;;4958475;29;20023;-79
2021/06/18 04:16:20;;;;;;;16.10;10.38;;;;;;;;;;4958459;29;20421;-79
2021/06/18 04:18:47;;;;;;;16.98;9.48;;;;;;;;;;4958407;29;20429;-79
2021/06/18 04:21:15;;;;;;;13.50;9.02;;;;;;;;;;4959594;28;20206;-79
2021/06/18 04:23:42;;;;;;;12.05;8.38;;;;;;;;;;4959640;28;20074;-79
2021/06/18 04:26:08;;;;;;;10.27;8.05;;;;;;;;;;4959281;28;20027;-79
2021/06/18 04:28:35;;;;;;;10.55;8.57;;;;;;;;;;4959312;28;20023;-80
2021/06/18 04:31:01;;;;;;;12.73;8.55;;;;;;;;;;4958205;29;20433;-79
2021/06/18 04:33:27;;;;;;;12.35;8.38;;;;;;;;;;4959075;28;20314;-79
2021/06/18 04:35:53;;;;;;;11.80;8.23;;;;;;;;;;4959515;28;20027;-84
2021/06/18 04:38:19;;;;;;;13.75;8.18;;;;;;;;;;4959478;28;20027;-84
2021/06/18 04:40:45;;;;;;;9.40;7.78;;;;;;;;;;4958337;29;20334;-84
2021/06/18 04:43:11;;;;;;;10.55;8.00;;;;;;;;;;4959279;28;20154;-83
2021/06/18 04:45:37;;;;;;;13.00;7.97;;;;;;;;;;4959099;28;20027;-83
2021/06/18 04:48:04;;;;;;;14.70;8.63;;;;;;;;;;4958190;29;20315;-84
2021/06/18 04:50:30;;;;;;;18.98;8.45;;;;;;;;;;4959060;28;20019;-84
2021/06/18 04:52:56;;;;;;;17.13;7.80;;;;;;;;;;4958149;29;20057;-83
2021/06/18 04:55:23;;;;;;;11.30;7.53;;;;;;;;;;4958142;29;20020;-84
2021/06/18 04:57:49;;;;;;;15.07;7.88;;;;;;;;;;4957802;29;20035;-84
2021/06/18 05:00:17;;;;;;;12.18;7.70;;;;;;;;;;4959263;28;20071;-84
2021/06/18 05:02:43;;;;;;;11.52;7.07;;;;;;;;;;4958730;28;20027;-84
2021/06/18 05:05:10;;;;;;;12.68;8.50;;;;;;;;;;4957703;29;20330;-83
2021/06/18 05:07:36;;;;;;;11.48;8.00;;;;;;;;;;4959029;28;20038;-83
2021/06/18 05:10:02;;;;;;;14.80;7.20;;;;;;;;;;4958957;28;20035;-83
2021/06/18 05:12:28;;;;;;;11.35;7.82;;;;;;;;;;4959024;28;20119;-83
2021/06/18 05:14:54;;;;;;;13.50;8.07;;;;;;;;;;4958770;28;20036;-84
2021/06/18 05:17:20;;;;;;;11.52;8.27;;;;;;;;;;4958864;28;20023;-84
2021/06/18 05:19:46;;;;;;;12.52;7.78;;;;;;;;;;4958858;28;20043;-84
2021/06/18 05:22:12;;;;;;;10.50;7.50;;;;;;;;;;4958988;28;20031;-84
2021/06/18 05:24:38;;;;;;;12.70;8.00;;;;;;;;;;4962343;28;20035;-84
2021/06/18 05:27:04;;;;;;;12.35;6.78;;;;;;;;;;4963064;28;20138;-83
2021/06/18 05:29:30;;;;;;;15.10;6.75;;;;;;;;;;4962539;28;20074;-83
2021/06/18 05:31:56;;;;;;;8.52;5.43;;;;;;;;;;4962280;28;20019;-83
2021/06/18 05:34:23;;;;;;;86.07;10.63;;;;;;;;;;4962997;28;20019;-83
2021/06/18 05:36:49;;;;;;;18.88;6.07;;;;;;;;;;4962652;29;20035;-81
2021/06/18 05:39:16;;;;;;;6.32;5.00;;;;;;;;;;4962639;28;20114;-83
2021/06/18 05:41:43;;;;;;;8.70;5.47;;;;;;;;;;4962609;28;20035;-84
2021/06/18 05:44:09;;;;;;;10.57;6.07;;;;;;;;;;4961378;29;20027;-84
2021/06/18 05:46:35;;;;;;;9.27;5.60;;;;;;;;;;4962343;28;20043;-83
2021/06/18 05:49:02;;;;;;;8.73;5.68;;;;;;;;;;4962221;28;20023;-84
2021/06/18 05:51:28;;;;;;;9.77;5.90;;;;;;;;;;4962249;28;20322;-83
2021/06/18 05:53:54;;;;;;;12.98;5.78;;;;;;;;;;4962382;28;20046;-83
2021/06/18 05:56:20;;;;;;;7.82;5.22;;;;;;;;;;4962312;28;20043;-84
2021/06/18 05:58:46;;;;;;;7.35;5.53;;;;;;;;;;4962292;28;20027;-84
2021/06/18 06:01:12;;;;;;;7.88;5.20;;;;;;;;;;4962179;28;20103;-84
2021/06/18 06:03:40;;;;;;;9.60;5.03;;;;;;;;;;4960876;29;20039;-84
2021/06/18 06:06:08;;;;;;;11.43;4.88;;;;;;;;;;4962209;28;20107;-84
2021/06/18 06:08:34;;;;;;;8.00;5.13;;;;;;;;;;4961648;28;20086;-83
2021/06/18 06:11:01;;;;;;;9.18;5.15;;;;;;;;;;4961959;28;20063;-84
2021/06/18 06:13:27;;;;;;;7.45;5.13;;;;;;;;;;4962330;28;20047;-84
2021/06/18 06:15:53;;;;;;;9.82;5.72;;;;;;;;;;4961837;28;20102;-84
2021/06/18 06:18:19;;;;;;;8.18;5.15;;;;;;;;;;4960725;29;20031;-84
2021/06/18 06:20:46;;;;;;;9.45;5.00;;;;;;;;;;4961775;28;20027;-83
2021/06/18 06:23:12;;;;;;;6.28;4.95;;;;;;;;;;4960815;29;20035;-84
2021/06/18 06:25:39;;;;;;;13.23;5.80;;;;;;;;;;4961716;28;20085;-84
2021/06/18 06:28:06;;;;;;;7.70;5.32;;;;;;;;;;4961748;28;20027;-84
2021/06/18 06:30:32;;;;;;;17.77;5.18;;;;;;;;;;4960415;29;20027;-84
2021/06/18 06:32:58;;;;;;;9.80;4.70;;;;;;;;;;4961773;28;20019;-83
2021/06/18 06:35:24;;;;;;;7.18;4.35;;;;;;;;;;4960199;28;20034;-83
2021/06/18 06:37:51;;;;;;;6.72;5.03;;;;;;;;;;4961593;28;20038;-83
2021/06/18 06:40:18;;;;;;;6.63;4.78;;;;;;;;;;4961486;28;20028;-84
2021/06/18 06:42:44;;;;;;;9.75;3.97;;;;;;;;;;4961148;28;20028;-83
2021/06/18 06:45:10;;;;;;;8.88;4.18;;;;;;;;;;4961513;28;20102;-83
2021/06/18 06:47:36;;;;;;;9.98;4.40;;;;;;;;;;4960936;28;20027;-84
2021/06/18 06:50:03;;;;;;;8.30;4.50;;;;;;;;;;4961041;28;20122;-84
2021/06/18 06:52:29;;;;;;;8.80;4.30;;;;;;;;;;4961189;28;20027;-83
2021/06/18 06:54:55;;;;;;;8.27;5.00;;;;;;;;;;4961208;28;20063;-83
2021/06/18 06:57:21;;;;;;;7.22;5.85;;;;;;;;;;4961062;28;20024;-83
2021/06/18 06:59:47;;;;;;;6.95;5.60;;;;;;;;;;4960705;28;20023;-83
2021/06/18 07:02:14;;;;;;;9.88;5.50;;;;;;;;;;4960907;28;20031;-84
2021/06/18 07:04:40;;;;;;;9.27;5.28;;;;;;;;;;4960776;28;20054;-84
2021/06/18 07:07:06;;;;;;;10.30;5.13;;;;;;;;;;4960816;29;20418;-84
2021/06/18 07:09:38;;;;;;;12.82;5.70;;;;;;;;;;4960987;29;20118;-84
2021/06/18 07:12:08;;;;;;;9.45;5.03;;;;;;;;;;4943866;29;20103;-86
2021/06/18 07:14:39;;;;;;;8.32;4.60;;;;;;;;;;4955849;29;20023;-83
2021/06/18 07:17:06;;;;;;;;;;;;;;;;;;4960653;29;20023;-83
2021/06/18 07:19:32;;;;;;;4.95;4.28;;;;;;;;;;4943559;29;19929;-84
2021/06/18 07:21:58;;;;;;;7.53;4.82;;;;;;;;;;4960605;29;20027;-84
2021/06/18 07:24:24;;;;;;;9.25;4.78;;;;;;;;;;4960579;29;20050;-83
2021/06/18 07:26:50;;;;;;;7.93;4.75;;;;;;;;;;4943425;29;20109;-84
2021/06/18 07:29:16;;;;;;;5.60;3.97;;;;;;;;;;4943051;29;20031;-84
2021/06/18 07:31:43;;;;;;;5.72;4.55;;;;;;;;;;4960241;29;20113;-84
2021/06/18 07:34:09;;;;;;;21.33;4.88;;;;;;;;;;4942959;29;20058;-83
2021/06/18 07:36:35;;;;;;;6.55;4.47;;;;;;;;;;4942982;29;20044;-84
2021/06/18 07:39:01;;;;;;;9.30;4.00;;;;;;;;;;4942877;29;20366;-84
2021/06/18 07:41:27;;;;;;;11.07;4.05;;;;;;;;;;4960029;29;20027;-84
2021/06/18 07:43:53;;;;;;;96.85;9.05;;;;;;;;;;4959895;29;20318;-85
2021/06/18 07:46:23;;;;;;;31.27;6.00;;;;;;;;;;4959205;28;20126;-84
2021/06/18 07:48:49;;;;;;;11.95;4.53;;;;;;;;;;4959835;29;20027;-84
2021/06/18 07:51:15;;;;;;;6.68;4.13;;;;;;;;;;4942965;29;20031;-84
2021/06/18 07:53:41;;;;;;;10.88;4.50;;;;;;;;;;4959988;29;20326;-84
2021/06/18 07:56:08;;;;;;;10.30;4.35;;;;;;;;;;4959956;29;20418;-84
2021/06/18 07:58:34;;;;;;;9.40;4.68;;;;;;;;;;4942757;29;20295;-83
2021/06/18 08:01:00;;;;;;;7.93;4.32;;;;;;;;;;4959726;29;20024;-82
2021/06/18 08:03:26;;;;;;;8.07;4.50;;;;;;;;;;4959556;29;20055;-83
2021/06/18 08:05:53;;;;;;;10.55;4.95;;;;;;;;;;4959922;29;20038;-84
2021/06/18 08:08:19;;;;;;;7.63;4.55;;;;;;;;;;4959840;29;20019;-83
2021/06/18 08:10:45;;;;;;;6.13;4.20;;;;;;;;;;4942623;29;20039;-84
2021/06/18 08:13:11;;;;;;;5.53;4.25;;;;;;;;;;4959765;29;20019;-83
2021/06/18 08:15:37;;;;;;;7.65;4.05;;;;;;;;;;4942626;29;20030;-83
2021/06/18 08:18:03;;;;;;;7.60;4.50;;;;;;;;;;4959559;29;20039;-83
2021/06/18 08:20:29;;;;;;;6.03;3.90;;;;;;;;;;4959891;29;20079;-85
2021/06/18 08:22:56;;;;;;;8.60;4.10;;;;;;;;;;4959489;29;20118;-85
2021/06/18 08:25:23;;;;;;;7.00;3.50;;;;;;;;;;4959651;29;20033;-83
2021/06/18 08:27:49;;;;;;;3.67;3.20;;;;;;;;;;4959482;29;20023;-84
2021/06/18 08:30:16;;;;;;;8.65;3.67;;;;;;;;;;4959284;29;20418;-84
2021/06/18 08:32:42;;;;;;;6.72;3.78;;;;;;;;;;4959638;29;20402;-83
2021/06/18 08:35:08;;;;;;;5.28;3.35;;;;;;;;;;4959369;29;20031;-81
2021/06/18 08:37:34;;;;;;;10.15;3.67;;;;;;;;;;4959551;29;20027;-82
2021/06/18 08:40:02;;;;;;;3.58;3.03;;;;;;;;;;4942593;29;20039;-81
2021/06/18 08:42:28;;;;;;;4.20;3.33;;;;;;;;;;4959420;29;20035;-81
2021/06/18 08:44:54;;;;;;;6.63;3.33;;;;;;;;;;4959200;29;20449;-81
2021/06/18 08:47:21;;;;;;;4.30;3.45;;;;;;;;;;4959352;29;20027;-83
2021/06/18 08:49:47;;;;;;;6.80;3.67;;;;;;;;;;4941975;29;20038;-82
2021/06/18 08:52:13;;;;;;;5.15;3.45;;;;;;;;;;4959446;29;20354;-82
2021/06/18 08:54:43;;;;;;;11.07;3.92;;;;;;;;;;4959212;29;20027;-82
2021/06/18 08:57:14;;;;;;;11.60;4.30;;;;;;;;;;4959164;28;20027;-82
2021/06/18 08:59:40;;;;;;;8.30;3.67;;;;;;;;;;4958697;29;20030;-80
2021/06/18 09:02:06;;;;;;;6.78;3.53;;;;;;;;;;4958893;29;20043;-81
2021/06/18 09:04:32;;;;;;;4.65;2.97;;;;;;;;;;4958935;28;20047;-81
2021/06/18 09:06:59;;;;;;;4.80;3.08;;;;;;;;;;4959030;29;20027;-81
2021/06/18 09:09:27;;;;;;;6.35;3.45;;;;;;;;;;4959064;29;20039;-81
2021/06/18 09:11:54;;;;;;;7.57;3.42;;;;;;;;;;4941868;29;20039;-82
2021/06/18 09:14:22;;;;;;;7.53;3.80;;;;;;;;;;4959029;29;20085;-82
2021/06/18 09:17:05;;;;;;;8.95;3.70;;;;;;;;;;4959197;29;20078;-81
2021/06/18 09:19:32;;;;;;;3.85;3.40;;;;;;;;;;4958888;29;20051;-81
2021/06/18 09:21:59;;;;;;;6.85;3.45;;;;;;;;;;4958964;29;20062;-81
2021/06/18 09:24:29;;;;;;;7.50;3.53;;;;;;;;;;4942043;29;20031;-81
2021/06/18 09:26:55;;;;;;;7.30;3.40;;;;;;;;;;4958818;29;20038;-82
2021/06/18 09:29:22;;;;;;;4.43;3.72;;;;;;;;;;4941769;29;20038;-81
2021/06/18 09:31:52;;;;;;;4.80;3.00;;;;;;;;;;4941576;29;20035;-81
2021/06/18 09:34:39;;;;;;;8.27;3.47;;;;;;;;;;4958854;28;20023;-82
2021/06/18 09:37:28;;;;;;;3.88;3.15;;;;;;;;;;4958682;29;20094;-81
2021/06/18 09:39:57;;;;;;;6.55;3.70;;;;;;;;;;4941707;29;20049;-81
2021/06/18 09:42:24;;;;;;;7.70;3.67;;;;;;;;;;4958803;29;20329;-81
2021/06/18 09:45:01;;;;;;;6.78;3.53;;;;;;;;;;4958432;29;20039;-81
2021/06/18 09:47:28;;;;;;;7.85;3.70;;;;;;;;;;4941494;29;20083;-81
2021/06/18 09:49:54;;;;;;;7.50;3.50;;;;;;;;;;4941482;29;20046;-80
2021/06/18 09:52:22;;;;;;;4.53;3.55;;;;;;;;;;4958404;29;20410;-81
2021/06/18 09:54:53;;;;;;;5.93;4.93;;;;;;;;;;4958628;29;20035;-82
2021/06/18 09:57:19;;;;;;;5.85;4.82;;;;;;;;;;4958875;29;20063;-83
2021/06/18 09:59:50;;;;;;;7.78;5.13;;;;;;;;;;4941483;29;20039;-83
2021/06/18 10:02:16;;;;;;;12.40;9.40;;;;;;;;;;4941569;29;20027;-84
2021/06/18 10:04:43;;;;;;;6.57;3.80;;;;;;;;;;4951953;29;20054;-83
2021/06/18 10:07:09;;;;;;;4.72;3.28;;;;;;;;;;4958513;28;20035;-84
2021/06/18 10:09:37;;;;;;;5.47;3.90;;;;;;;;;;4959829;28;20138;-82
2021/06/18 10:12:04;;;;;;;11.50;9.40;;;;;;;;;;4961927;28;20066;-83
2021/06/18 10:14:30;;;;;;;5.65;3.83;;;;;;;;;;4961909;28;20417;-83
2021/06/18 10:16:56;;;;;;;14.90;8.15;;;;;;;;;;4961828;28;20322;-84
2021/06/18 10:19:22;;;;;;;5.13;3.42;;;;;;;;;;4960816;29;20027;-82
2021/06/18 10:21:51;;;;;;;4.70;3.50;;;;;;;;;;4961847;28;20027;-84
2021/06/18 10:24:19;;;;;;;5.68;3.78;;;;;;;;;;4953672;29;20032;-84
2021/06/18 10:26:49;;;;;;;5.03;3.47;;;;;;;;;;4942471;29;20040;-84
2021/06/18 10:29:28;;;;;;;7.72;3.90;;;;;;;;;;4942224;29;20059;-84
2021/06/18 10:31:54;;;;;;;6.60;3.83;;;;;;;;;;4942171;29;20027;-83
2021/06/18 10:34:20;;;;;;;5.03;3.90;;;;;;;;;;4942427;29;20036;-83
2021/06/18 10:36:46;;;;;;;6.32;3.60;;;;;;;;;;4942202;29;20465;-84
2021/06/18 10:39:15;;;;;;;4.95;3.72;;;;;;;;;;4942332;29;20032;-83
2021/06/18 10:41:45;;;;;;;4.78;3.20;;;;;;;;;;4942261;29;20035;-84
2021/06/18 10:44:11;;;;;;;5.50;3.35;;;;;;;;;;4942049;29;20027;-83
2021/06/18 10:46:38;;;;;;;6.00;3.10;;;;;;;;;;4941985;29;20152;-84
2021/06/18 10:49:08;;;;;;;4.97;3.50;;;;;;;;;;4941723;29;20031;-84
2021/06/18 10:51:38;;;;;;;5.00;3.40;;;;;;;;;;4941915;29;20035;-80
2021/06/18 10:54:07;;;;;;;7.30;3.60;;;;;;;;;;4945479;29;20060;-83
2021/06/18 10:56:45;;;;;;;6.72;3.03;;;;;;;;;;4961066;28;20426;-84
2021/06/18 10:59:16;;;;;;;4.72;3.17;;;;;;;;;;4961326;28;20026;-83
2021/06/18 11:01:42;;;;;;;4.47;3.28;;;;;;;;;;4961196;28;20030;-83
2021/06/18 11:04:08;;;;;;;4.07;2.65;;;;;;;;;;4961054;28;20122;-83
2021/06/18 11:06:41;;;;;;;8.55;3.33;;;;;;;;;;4944009;29;20428;-83
2021/06/18 11:09:07;;;;;;;4.47;3.15;;;;;;;;;;4960797;29;20418;-83
2021/06/18 11:11:33;;;;;;;8.68;3.33;;;;;;;;;;4960991;29;20067;-83
2021/06/18 11:14:11;;;;;;;4.28;3.15;;;;;;;;;;4960692;29;20023;-83
2021/06/18 11:16:39;;;;;;;3.63;3.20;;;;;;;;;;4943837;29;20062;-84
2021/06/18 11:19:21;;;;;;;3.90;2.67;;;;;;;;;;4960572;29;20035;-84
2021/06/18 11:21:47;;;;;;;3.83;3.33;;;;;;;;;;4942916;29;20414;-83
2021/06/18 11:24:32;;;;;;;7.75;3.47;;;;;;;;;;4943421;29;20043;-83
2021/06/18 11:27:16;;;;;;;4.28;3.28;;;;;;;;;;4960612;29;20075;-84
2021/06/18 11:30:02;;;;;;;4.65;3.15;;;;;;;;;;4960776;29;20127;-83
2021/06/18 11:32:41;;;;;;;20.75;8.95;;;;;;;;;;4960357;29;20027;-83
2021/06/18 11:35:26;;;;;;;7.75;4.20;;;;;;;;;;4960301;29;20023;-83
2021/06/18 11:37:52;;;;;;;4.72;3.25;;;;;;;;;;4943235;29;20038;-83
2021/06/18 11:40:23;;;;;;;7.35;4.22;;;;;;;;;;4943270;29;20044;-84
2021/06/18 11:42:49;;;;;;;6.67;4.63;;;;;;;;;;4943253;29;20047;-84
2021/06/18 11:45:15;;;;;;;5.75;4.00;;;;;;;;;;4960167;29;20265;-84
2021/06/18 11:47:42;;;;;;;11.15;5.63;;;;;;;;;;4960222;29;20330;-84
2021/06/18 11:50:08;;;;;;;7.28;4.88;;;;;;;;;;4960373;29;20038;-84
2021/06/18 11:52:35;;;;;;;5.93;2.88;;;;;;;;;;4960042;29;20019;-84
2021/06/18 11:55:01;;;;;;;6.68;3.10;;;;;;;;;;4960090;29;20107;-84
2021/06/18 11:57:27;;;;;;;10.48;4.40;;;;;;;;;;4960113;29;20024;-84
2021/06/18 12:00:12;;;;;;;3.97;3.13;;;;;;;;;;4959682;29;20024;-84
2021/06/18 12:02:38;;;;;;;9.15;3.63;;;;;;;;;;4959842;29;20023;-85
2021/06/18 12:05:08;;;;;;;5.38;3.40;;;;;;;;;;4959793;28;20134;-85
2021/06/18 12:07:34;;;;;;;5.13;2.78;;;;;;;;;;4943055;29;20041;-84
2021/06/18 12:10:01;;;;;;;4.13;2.42;;;;;;;;;;4959643;29;20031;-84
2021/06/18 12:12:27;;;;;;;4.25;2.47;;;;;;;;;;4959740;29;20022;-83
2021/06/18 12:14:58;;;;;;;3.72;3.03;;;;;;;;;;4959666;29;20024;-83
2021/06/18 12:17:26;;;;;;;3.88;2.53;;;;;;;;;;4960132;29;20322;-83
2021/06/18 12:19:53;;;;;;;5.43;2.60;;;;;;;;;;4959773;29;20081;-84
2021/06/18 12:22:22;;;;;;;3.38;2.40;;;;;;;;;;4959747;29;20027;-84
2021/06/18 12:24:50;;;;;;;5.70;3.20;;;;;;;;;;4959711;29;20034;-83
2021/06/18 12:27:23;;;;;;;4.38;2.38;;;;;;;;;;4959481;29;20039;-84
2021/06/18 12:29:55;;;;;;;4.15;2.75;;;;;;;;;;4959250;29;20114;-84
2021/06/18 12:32:24;;;;;;;2.65;2.33;;;;;;;;;;4942862;29;20027;-92
2021/06/18 12:34:52;;;;;;;4.68;2.47;;;;;;;;;;4943637;29;20050;-81
2021/06/18 12:37:19;;;;;;;2.40;2.20;;;;;;;;;;4959802;29;20034;-83
2021/06/18 12:39:49;;;;;;;4.82;2.65;;;;;;;;;;4959816;29;20058;-86
2021/06/18 12:42:19;;;;;;;3.65;2.80;;;;;;;;;;4959659;29;20038;-87
2021/06/18 12:44:45;;;;;;;8.05;2.70;;;;;;;;;;4959638;29;20050;-87
2021/06/18 12:47:11;;;;;;;2.90;2.40;;;;;;;;;;4959549;29;20028;-87
2021/06/18 12:49:37;;;;;;;2.97;2.25;;;;;;;;;;4942492;29;20158;-87
2021/06/18 12:52:08;;;;;;;2.78;2.25;;;;;;;;;;4959670;29;20432;-87
2021/06/18 12:54:35;;;;;;;3.72;3.03;;;;;;;;;;4959524;29;20309;-87
2021/06/18 12:57:01;;;;;;;4.30;3.05;;;;;;;;;;4959928;29;20033;-87
2021/06/18 12:59:35;;;;;;;4.40;2.60;;;;;;;;;;4959638;29;20031;-88
2021/06/18 13:02:01;;;;;;;5.03;2.58;;;;;;;;;;4959642;29;20023;-87
2021/06/18 13:04:32;;;;;;;5.15;2.92;;;;;;;;;;4950924;29;20043;-87
2021/06/18 13:06:58;;;;;;;5.95;3.00;;;;;;;;;;4958554;29;20038;-87
2021/06/18 13:09:35;;;;;;;3.97;2.75;;;;;;;;;;4958500;29;20074;-87
2021/06/18 13:12:01;;;;;;;2.47;2.28;;;;;;;;;;4958471;29;20023;-87
2021/06/18 13:14:27;;;;;;;2.92;2.65;;;;;;;;;;4959380;28;20042;-87
2021/06/18 13:16:54;;;;;;;6.25;3.10;;;;;;;;;;4959284;28;20078;-87
2021/06/18 13:19:21;;;;;;;3.35;3.03;;;;;;;;;;4959101;28;20054;-87
2021/06/18 13:21:54;;;;;;;3.15;2.83;;;;;;;;;;4959339;28;20413;-87
2021/06/18 13:24:28;;;;;;;4.18;3.25;;;;;;;;;;4959116;28;20034;-87
2021/06/18 13:26:55;;;;;;;3.65;2.80;;;;;;;;;;4959483;28;20126;-86
2021/06/18 13:29:23;;;;;;;4.13;2.90;;;;;;;;;;4959301;28;20314;-87
2021/06/18 13:31:53;;;;;;;3.08;2.70;;;;;;;;;;4958135;29;20031;-87
2021/06/18 13:34:20;;;;;;;7.97;3.50;;;;;;;;;;4958363;29;20418;-91
2021/06/18 13:36:46;;;;;;;3.45;3.15;;;;;;;;;;4959227;28;20035;-94
2021/06/18 13:39:12;;;;;;;5.10;3.83;;;;;;;;;;4959132;28;20031;-95
2021/06/18 13:41:43;;;;;;;4.50;3.95;;;;;;;;;;4959429;28;20031;-96
2021/06/18 13:44:09;;;;;;;4.80;3.92;;;;;;;;;;4958916;28;20353;-96
2021/06/18 13:46:36;;;;;;;3.28;2.97;;;;;;;;;;4961990;29;20039;-95
2021/06/18 13:49:02;;;;;;;3.78;3.05;;;;;;;;;;4961922;29;20027;-95
2021/06/18 13:51:28;;;;;;;3.83;3.20;;;;;;;;;;4962170;29;20043;-95
2021/06/18 13:53:54;;;;;;;5.32;2.83;;;;;;;;;;4962639;28;20027;-95
2021/06/18 13:56:21;;;;;;;3.08;2.70;;;;;;;;;;4963043;28;20023;-96
2021/06/18 13:58:47;;;;;;;3.28;2.70;;;;;;;;;;4962993;28;20035;-95
2021/06/18 14:01:14;;;;;;;5.07;2.60;;;;;;;;;;4963352;29;20031;-95
2021/06/18 14:03:40;;;;;;;4.88;2.88;;;;;;;;;;4962609;28;20122;-94
2021/06/18 14:06:08;;;;;;;6.78;2.60;;;;;;;;;;4945692;29;20146;-95
2021/06/18 14:08:34;;;;;;;4.47;2.65;;;;;;;;;;4945794;29;20086;-94
2021/06/18 14:11:00;;;;;;;7.78;2.67;;;;;;;;;;4962663;29;20109;-95
2021/06/18 14:13:26;;;;;;;4.53;2.78;;;;;;;;;;4945503;29;20024;-95
2021/06/18 14:15:52;;;;;;;3.22;2.85;;;;;;;;;;4945610;29;20410;-95
2021/06/18 14:18:19;;;;;;;3.58;3.10;;;;;;;;;;4945471;29;20039;-96
2021/06/18 14:20:46;;;;;;;4.75;3.40;;;;;;;;;;4962237;29;20031;-96
2021/06/18 14:23:13;;;;;;;4.78;3.08;;;;;;;;;;4962420;29;20027;-96
2021/06/18 14:25:39;;;;;;;3.13;2.67;;;;;;;;;;4962389;29;20090;-95
2021/06/18 14:28:05;;;;;;;3.53;2.78;;;;;;;;;;4962395;29;20023;-95
2021/06/18 14:30:31;;;;;;;2.80;2.33;;;;;;;;;;4962054;29;20317;-95
2021/06/18 14:32:57;;;;;;;4.95;2.60;;;;;;;;;;4962174;29;20019;-94
2021/06/18 14:35:24;;;;;;;4.03;3.10;;;;;;;;;;4962173;29;20034;-94
2021/06/18 14:37:50;;;;;;;3.17;2.45;;;;;;;;;;4961890;29;20023;-95
2021/06/18 14:40:16;;;;;;;6.47;3.13;;;;;;;;;;4961789;29;20027;-95
2021/06/18 14:42:42;;;;;;;5.13;2.90;;;;;;;;;;4962124;29;20027;-95
2021/06/18 14:45:09;;;;;;;5.60;2.90;;;;;;;;;;4961650;29;20166;-95